sensor_id;sensor_type;location;lat;lon;timestamp;P1;durP1;ratioP1;P2;durP2;ratioP2
34765;SDS011;20984;43.508;1.504;2023-12-29T00:00:37;37.10;;;26.10;;
34765;SDS011;20984;43.508;1.504;2023-12-29T00:03:03;21.80;;;17.23;;
34765;SDS011;20984;43.508;1.504;2023-12-29T00:05:29;26.73;;;20.55;;
34765;SDS011;20984;43.508;1.504;2023-12-29T00:07:55;36.13;;;24.80;;
34765;SDS011;20984;43.508;1.504;2023-12-29T00:10:21;20.75;;;15.52;;
34765;SDS011;20984;43.508;1.504;2023-12-29T00:12:46;23.00;;;16.92;;
34765;SDS011;20984;43.508;1.504;2023-12-29T00:15:12;34.63;;;25.73;;
34765;SDS011;20984;43.508;1.504;2023-12-29T00:17:38;25.35;;;20.25;;
34765;SDS011;20984;43.508;1.504;2023-12-29T00:20:05;20.77;;;14.57;;
34765;SDS011;20984;43.508;1.504;2023-12-29T00:22:33;24.50;;;17.73;;
34765;SDS011;20984;43.508;1.504;2023-12-29T00:24:59;32.83;;;23.50;;
34765;SDS011;20984;43.508;1.504;2023-12-29T00:27:25;25.30;;;19.30;;
34765;SDS011;20984;43.508;1.504;2023-12-29T00:29:50;27.73;;;17.88;;
34765;SDS011;20984;43.508;1.504;2023-12-29T00:32:16;34.05;;;25.30;;
34765;SDS011;20984;43.508;1.504;2023-12-29T00:34:42;26.60;;;19.10;;
34765;SDS011;20984;43.508;1.504;2023-12-29T00:37:07;28.02;;;18.52;;
34765;SDS011;20984;43.508;1.504;2023-12-29T00:39:33;25.38;;;17.90;;
34765;SDS011;20984;43.508;1.504;2023-12-29T00:42:04;59.25;;;40.25;;
34765;SDS011;20984;43.508;1.504;2023-12-29T00:44:31;36.75;;;26.17;;
34765;SDS011;20984;43.508;1.504;2023-12-29T00:46:57;63.97;;;35.50;;
34765;SDS011;20984;43.508;1.504;2023-12-29T00:49:22;79.43;;;45.05;;
34765;SDS011;20984;43.508;1.504;2023-12-29T00:51:48;56.20;;;32.13;;
34765;SDS011;20984;43.508;1.504;2023-12-29T00:54:14;57.85;;;27.35;;
34765;SDS011;20984;43.508;1.504;2023-12-29T00:56:40;39.72;;;21.67;;
34765;SDS011;20984;43.508;1.504;2023-12-29T00:59:06;59.40;;;31.13;;
34765;SDS011;20984;43.508;1.504;2023-12-29T01:01:35;231.73;;;108.95;;
34765;SDS011;20984;43.508;1.504;2023-12-29T01:04:01;116.90;;;55.92;;
34765;SDS011;20984;43.508;1.504;2023-12-29T01:06:27;349.10;;;168.63;;
34765;SDS011;20984;43.508;1.504;2023-12-29T01:08:52;331.20;;;158.25;;
34765;SDS011;20984;43.508;1.504;2023-12-29T01:11:18;74.18;;;41.85;;
34765;SDS011;20984;43.508;1.504;2023-12-29T01:13:43;215.00;;;114.40;;
34765;SDS011;20984;43.508;1.504;2023-12-29T01:16:09;57.85;;;36.00;;
34765;SDS011;20984;43.508;1.504;2023-12-29T01:18:35;192.32;;;105.80;;
34765;SDS011;20984;43.508;1.504;2023-12-29T01:21:01;84.10;;;51.08;;
34765;SDS011;20984;43.508;1.504;2023-12-29T01:23:26;177.15;;;102.07;;
34765;SDS011;20984;43.508;1.504;2023-12-29T01:25:52;81.13;;;50.03;;
34765;SDS011;20984;43.508;1.504;2023-12-29T01:28:17;97.85;;;58.70;;
34765;SDS011;20984;43.508;1.504;2023-12-29T01:30:43;39.15;;;25.52;;
34765;SDS011;20984;43.508;1.504;2023-12-29T01:33:09;37.00;;;22.92;;
34765;SDS011;20984;43.508;1.504;2023-12-29T01:35:34;31.08;;;22.27;;
34765;SDS011;20984;43.508;1.504;2023-12-29T01:38:02;63.70;;;36.33;;
34765;SDS011;20984;43.508;1.504;2023-12-29T01:40:28;28.45;;;20.73;;
34765;SDS011;20984;43.508;1.504;2023-12-29T01:42:53;30.42;;;21.80;;
34765;SDS011;20984;43.508;1.504;2023-12-29T01:45:22;27.55;;;19.15;;
34765;SDS011;20984;43.508;1.504;2023-12-29T01:47:50;24.58;;;18.33;;
34765;SDS011;20984;43.508;1.504;2023-12-29T01:50:20;26.75;;;18.17;;
34765;SDS011;20984;43.508;1.504;2023-12-29T01:52:48;22.65;;;17.35;;
34765;SDS011;20984;43.508;1.504;2023-12-29T01:55:17;26.58;;;19.67;;
34765;SDS011;20984;43.508;1.504;2023-12-29T01:57:44;22.45;;;17.85;;
34765;SDS011;20984;43.508;1.504;2023-12-29T02:00:12;29.05;;;18.67;;
34765;SDS011;20984;43.508;1.504;2023-12-29T02:02:38;26.33;;;19.17;;
34765;SDS011;20984;43.508;1.504;2023-12-29T02:05:04;24.52;;;20.45;;
34765;SDS011;20984;43.508;1.504;2023-12-29T02:07:31;26.65;;;19.88;;
34765;SDS011;20984;43.508;1.504;2023-12-29T02:09:57;25.10;;;19.00;;
34765;SDS011;20984;43.508;1.504;2023-12-29T02:12:24;27.92;;;20.38;;
34765;SDS011;20984;43.508;1.504;2023-12-29T02:14:50;27.60;;;19.55;;
34765;SDS011;20984;43.508;1.504;2023-12-29T02:19:50;37.63;;;25.05;;
34765;SDS011;20984;43.508;1.504;2023-12-29T02:22:17;30.58;;;21.02;;
34765;SDS011;20984;43.508;1.504;2023-12-29T02:24:46;34.10;;;23.55;;
34765;SDS011;20984;43.508;1.504;2023-12-29T02:30:27;32.38;;;23.17;;
34765;SDS011;20984;43.508;1.504;2023-12-29T02:33:01;37.00;;;25.85;;
34765;SDS011;20984;43.508;1.504;2023-12-29T02:35:31;41.40;;;26.40;;
34765;SDS011;20984;43.508;1.504;2023-12-29T02:38:00;35.83;;;26.88;;
34765;SDS011;20984;43.508;1.504;2023-12-29T02:40:27;44.33;;;25.77;;
34765;SDS011;20984;43.508;1.504;2023-12-29T02:42:52;42.25;;;26.85;;
34765;SDS011;20984;43.508;1.504;2023-12-29T02:45:18;39.33;;;26.15;;
34765;SDS011;20984;43.508;1.504;2023-12-29T02:47:44;39.17;;;28.70;;
34765;SDS011;20984;43.508;1.504;2023-12-29T02:50:10;38.63;;;25.98;;
34765;SDS011;20984;43.508;1.504;2023-12-29T02:52:36;46.08;;;28.80;;
34765;SDS011;20984;43.508;1.504;2023-12-29T02:55:02;40.75;;;27.10;;
34765;SDS011;20984;43.508;1.504;2023-12-29T02:57:28;39.38;;;25.42;;
34765;SDS011;20984;43.508;1.504;2023-12-29T02:59:54;40.15;;;23.65;;
34765;SDS011;20984;43.508;1.504;2023-12-29T03:02:21;41.55;;;23.60;;
34765;SDS011;20984;43.508;1.504;2023-12-29T03:04:46;37.92;;;24.92;;
34765;SDS011;20984;43.508;1.504;2023-12-29T03:07:12;38.30;;;24.10;;
34765;SDS011;20984;43.508;1.504;2023-12-29T03:09:38;42.85;;;25.25;;
34765;SDS011;20984;43.508;1.504;2023-12-29T03:12:03;40.45;;;26.30;;
34765;SDS011;20984;43.508;1.504;2023-12-29T03:14:30;41.78;;;26.63;;
34765;SDS011;20984;43.508;1.504;2023-12-29T03:16:55;40.42;;;26.40;;
34765;SDS011;20984;43.508;1.504;2023-12-29T03:19:21;39.60;;;28.05;;
34765;SDS011;20984;43.508;1.504;2023-12-29T03:21:46;45.60;;;25.73;;
34765;SDS011;20984;43.508;1.504;2023-12-29T03:24:12;36.42;;;24.35;;
34765;SDS011;20984;43.508;1.504;2023-12-29T03:26:38;42.72;;;25.27;;
34765;SDS011;20984;43.508;1.504;2023-12-29T03:29:03;36.83;;;25.05;;
34765;SDS011;20984;43.508;1.504;2023-12-29T03:31:29;40.83;;;26.33;;
34765;SDS011;20984;43.508;1.504;2023-12-29T03:33:55;42.78;;;25.13;;
34765;SDS011;20984;43.508;1.504;2023-12-29T03:36:20;41.25;;;27.10;;
34765;SDS011;20984;43.508;1.504;2023-12-29T03:38:46;42.80;;;24.98;;
34765;SDS011;20984;43.508;1.504;2023-12-29T03:41:12;40.85;;;25.63;;
34765;SDS011;20984;43.508;1.504;2023-12-29T03:43:37;40.00;;;24.88;;
34765;SDS011;20984;43.508;1.504;2023-12-29T03:46:03;43.47;;;26.58;;
34765;SDS011;20984;43.508;1.504;2023-12-29T03:48:39;47.38;;;27.02;;
34765;SDS011;20984;43.508;1.504;2023-12-29T03:51:05;42.35;;;26.70;;
34765;SDS011;20984;43.508;1.504;2023-12-29T03:53:30;39.42;;;27.15;;
34765;SDS011;20984;43.508;1.504;2023-12-29T03:55:56;38.85;;;25.20;;
34765;SDS011;20984;43.508;1.504;2023-12-29T03:58:22;47.88;;;28.70;;
34765;SDS011;20984;43.508;1.504;2023-12-29T04:00:47;44.35;;;28.67;;
34765;SDS011;20984;43.508;1.504;2023-12-29T04:03:13;50.25;;;28.17;;
34765;SDS011;20984;43.508;1.504;2023-12-29T04:05:38;51.60;;;31.20;;
34765;SDS011;20984;43.508;1.504;2023-12-29T04:08:04;49.03;;;29.55;;
34765;SDS011;20984;43.508;1.504;2023-12-29T04:10:30;49.08;;;29.60;;
34765;SDS011;20984;43.508;1.504;2023-12-29T04:12:56;46.28;;;29.63;;
34765;SDS011;20984;43.508;1.504;2023-12-29T04:15:21;47.85;;;30.50;;
34765;SDS011;20984;43.508;1.504;2023-12-29T04:17:47;53.33;;;30.05;;
34765;SDS011;20984;43.508;1.504;2023-12-29T04:20:13;47.22;;;28.27;;
34765;SDS011;20984;43.508;1.504;2023-12-29T04:22:38;58.78;;;30.25;;
34765;SDS011;20984;43.508;1.504;2023-12-29T04:25:04;45.92;;;29.27;;
34765;SDS011;20984;43.508;1.504;2023-12-29T04:27:30;46.35;;;27.98;;
34765;SDS011;20984;43.508;1.504;2023-12-29T04:29:56;53.95;;;29.85;;
34765;SDS011;20984;43.508;1.504;2023-12-29T04:32:21;55.63;;;30.05;;
34765;SDS011;20984;43.508;1.504;2023-12-29T04:34:47;55.70;;;32.45;;
34765;SDS011;20984;43.508;1.504;2023-12-29T04:37:12;49.47;;;29.90;;
34765;SDS011;20984;43.508;1.504;2023-12-29T04:39:38;56.33;;;31.35;;
34765;SDS011;20984;43.508;1.504;2023-12-29T04:42:04;64.15;;;32.92;;
34765;SDS011;20984;43.508;1.504;2023-12-29T04:44:29;56.63;;;31.73;;
34765;SDS011;20984;43.508;1.504;2023-12-29T04:46:55;63.58;;;34.38;;
34765;SDS011;20984;43.508;1.504;2023-12-29T04:49:20;57.40;;;32.75;;
34765;SDS011;20984;43.508;1.504;2023-12-29T04:51:47;60.38;;;34.45;;
34765;SDS011;20984;43.508;1.504;2023-12-29T04:54:13;63.80;;;33.25;;
34765;SDS011;20984;43.508;1.504;2023-12-29T04:56:39;57.75;;;32.15;;
34765;SDS011;20984;43.508;1.504;2023-12-29T04:59:05;59.28;;;32.70;;
34765;SDS011;20984;43.508;1.504;2023-12-29T05:01:30;60.70;;;34.53;;
34765;SDS011;20984;43.508;1.504;2023-12-29T05:03:56;55.10;;;32.83;;
34765;SDS011;20984;43.508;1.504;2023-12-29T05:06:22;62.83;;;34.47;;
34765;SDS011;20984;43.508;1.504;2023-12-29T05:08:47;56.17;;;32.88;;
34765;SDS011;20984;43.508;1.504;2023-12-29T05:11:13;59.25;;;32.40;;
34765;SDS011;20984;43.508;1.504;2023-12-29T05:13:39;50.60;;;30.95;;
34765;SDS011;20984;43.508;1.504;2023-12-29T05:16:05;56.92;;;32.03;;
34765;SDS011;20984;43.508;1.504;2023-12-29T05:18:31;58.33;;;30.20;;
34765;SDS011;20984;43.508;1.504;2023-12-29T05:20:56;66.50;;;32.10;;
34765;SDS011;20984;43.508;1.504;2023-12-29T05:23:22;54.38;;;33.65;;
34765;SDS011;20984;43.508;1.504;2023-12-29T05:25:47;91.40;;;47.13;;
34765;SDS011;20984;43.508;1.504;2023-12-29T05:28:13;70.95;;;38.03;;
34765;SDS011;20984;43.508;1.504;2023-12-29T05:30:39;56.65;;;31.88;;
34765;SDS011;20984;43.508;1.504;2023-12-29T05:33:04;56.88;;;32.30;;
34765;SDS011;20984;43.508;1.504;2023-12-29T05:35:30;58.63;;;32.78;;
34765;SDS011;20984;43.508;1.504;2023-12-29T05:37:56;50.13;;;28.40;;
34765;SDS011;20984;43.508;1.504;2023-12-29T05:40:21;43.63;;;26.80;;
34765;SDS011;20984;43.508;1.504;2023-12-29T05:42:47;43.25;;;27.98;;
34765;SDS011;20984;43.508;1.504;2023-12-29T05:45:12;42.05;;;26.70;;
34765;SDS011;20984;43.508;1.504;2023-12-29T05:47:41;41.88;;;26.80;;
34765;SDS011;20984;43.508;1.504;2023-12-29T05:50:07;46.08;;;28.15;;
34765;SDS011;20984;43.508;1.504;2023-12-29T05:52:33;39.53;;;22.95;;
34765;SDS011;20984;43.508;1.504;2023-12-29T05:54:58;40.47;;;25.60;;
34765;SDS011;20984;43.508;1.504;2023-12-29T05:57:24;40.22;;;24.20;;
34765;SDS011;20984;43.508;1.504;2023-12-29T05:59:50;41.70;;;25.13;;
34765;SDS011;20984;43.508;1.504;2023-12-29T06:02:15;38.55;;;24.52;;
34765;SDS011;20984;43.508;1.504;2023-12-29T06:04:41;42.00;;;25.45;;
34765;SDS011;20984;43.508;1.504;2023-12-29T06:07:06;47.13;;;25.40;;
34765;SDS011;20984;43.508;1.504;2023-12-29T06:09:32;39.28;;;23.75;;
34765;SDS011;20984;43.508;1.504;2023-12-29T06:11:58;42.40;;;24.08;;
34765;SDS011;20984;43.508;1.504;2023-12-29T06:14:23;37.67;;;23.38;;
34765;SDS011;20984;43.508;1.504;2023-12-29T06:16:49;38.80;;;24.17;;
34765;SDS011;20984;43.508;1.504;2023-12-29T06:19:14;39.78;;;26.77;;
34765;SDS011;20984;43.508;1.504;2023-12-29T06:21:41;37.03;;;22.98;;
34765;SDS011;20984;43.508;1.504;2023-12-29T06:24:08;32.45;;;23.73;;
34765;SDS011;20984;43.508;1.504;2023-12-29T06:26:34;33.03;;;22.63;;
34765;SDS011;20984;43.508;1.504;2023-12-29T06:29:00;37.13;;;23.75;;
34765;SDS011;20984;43.508;1.504;2023-12-29T06:31:25;40.22;;;22.67;;
34765;SDS011;20984;43.508;1.504;2023-12-29T06:33:51;28.90;;;18.00;;
34765;SDS011;20984;43.508;1.504;2023-12-29T06:36:17;39.85;;;22.52;;
34765;SDS011;20984;43.508;1.504;2023-12-29T06:38:42;31.67;;;20.60;;
34765;SDS011;20984;43.508;1.504;2023-12-29T06:41:13;25.50;;;18.40;;
34765;SDS011;20984;43.508;1.504;2023-12-29T06:43:39;32.03;;;21.20;;
34765;SDS011;20984;43.508;1.504;2023-12-29T06:46:04;24.55;;;19.80;;
34765;SDS011;20984;43.508;1.504;2023-12-29T06:48:31;29.83;;;20.67;;
34765;SDS011;20984;43.508;1.504;2023-12-29T06:50:56;25.27;;;18.65;;
34765;SDS011;20984;43.508;1.504;2023-12-29T06:53:22;25.63;;;18.98;;
34765;SDS011;20984;43.508;1.504;2023-12-29T06:55:48;27.70;;;19.00;;
34765;SDS011;20984;43.508;1.504;2023-12-29T06:58:13;28.63;;;20.58;;
34765;SDS011;20984;43.508;1.504;2023-12-29T07:00:39;28.13;;;20.08;;
34765;SDS011;20984;43.508;1.504;2023-12-29T07:03:05;29.50;;;18.30;;
34765;SDS011;20984;43.508;1.504;2023-12-29T07:05:30;25.50;;;19.10;;
34765;SDS011;20984;43.508;1.504;2023-12-29T07:07:57;33.35;;;21.05;;
34765;SDS011;20984;43.508;1.504;2023-12-29T07:10:22;34.55;;;19.58;;
34765;SDS011;20984;43.508;1.504;2023-12-29T07:12:48;31.38;;;20.48;;
34765;SDS011;20984;43.508;1.504;2023-12-29T07:15:14;24.98;;;20.27;;
34765;SDS011;20984;43.508;1.504;2023-12-29T07:17:39;32.22;;;21.38;;
34765;SDS011;20984;43.508;1.504;2023-12-29T07:20:05;24.77;;;19.65;;
34765;SDS011;20984;43.508;1.504;2023-12-29T07:22:31;25.35;;;18.80;;
34765;SDS011;20984;43.508;1.504;2023-12-29T07:24:57;25.98;;;18.13;;
34765;SDS011;20984;43.508;1.504;2023-12-29T07:27:23;22.98;;;16.58;;
34765;SDS011;20984;43.508;1.504;2023-12-29T07:29:49;29.30;;;19.25;;
34765;SDS011;20984;43.508;1.504;2023-12-29T07:32:14;20.48;;;16.50;;
34765;SDS011;20984;43.508;1.504;2023-12-29T07:34:40;24.75;;;15.80;;
34765;SDS011;20984;43.508;1.504;2023-12-29T07:37:06;20.55;;;17.35;;
34765;SDS011;20984;43.508;1.504;2023-12-29T07:39:31;23.35;;;18.77;;
34765;SDS011;20984;43.508;1.504;2023-12-29T07:41:57;30.23;;;19.00;;
34765;SDS011;20984;43.508;1.504;2023-12-29T07:44:22;25.92;;;19.70;;
34765;SDS011;20984;43.508;1.504;2023-12-29T07:46:48;24.40;;;19.65;;
34765;SDS011;20984;43.508;1.504;2023-12-29T07:49:14;35.33;;;21.35;;
34765;SDS011;20984;43.508;1.504;2023-12-29T07:51:40;63.05;;;35.10;;
34765;SDS011;20984;43.508;1.504;2023-12-29T07:54:07;96.82;;;49.55;;
34765;SDS011;20984;43.508;1.504;2023-12-29T07:56:33;46.30;;;29.02;;
34765;SDS011;20984;43.508;1.504;2023-12-29T07:59:01;42.10;;;25.83;;
34765;SDS011;20984;43.508;1.504;2023-12-29T08:01:27;49.65;;;31.75;;
34765;SDS011;20984;43.508;1.504;2023-12-29T08:03:53;71.53;;;43.17;;
34765;SDS011;20984;43.508;1.504;2023-12-29T08:06:20;212.52;;;114.25;;
34765;SDS011;20984;43.508;1.504;2023-12-29T08:08:45;112.38;;;63.47;;
34765;SDS011;20984;43.508;1.504;2023-12-29T08:11:17;49.90;;;35.33;;
34765;SDS011;20984;43.508;1.504;2023-12-29T08:13:43;54.38;;;36.28;;
34765;SDS011;20984;43.508;1.504;2023-12-29T08:16:11;47.28;;;31.45;;
34765;SDS011;20984;43.508;1.504;2023-12-29T08:18:37;65.05;;;49.13;;
34765;SDS011;20984;43.508;1.504;2023-12-29T08:21:03;77.95;;;56.28;;
34765;SDS011;20984;43.508;1.504;2023-12-29T08:23:28;68.30;;;46.85;;
34765;SDS011;20984;43.508;1.504;2023-12-29T08:25:55;67.88;;;47.22;;
34765;SDS011;20984;43.508;1.504;2023-12-29T08:28:22;73.63;;;52.70;;
34765;SDS011;20984;43.508;1.504;2023-12-29T08:30:48;50.45;;;36.45;;
34765;SDS011;20984;43.508;1.504;2023-12-29T08:33:13;43.60;;;30.52;;
34765;SDS011;20984;43.508;1.504;2023-12-29T08:35:43;39.55;;;30.33;;
34765;SDS011;20984;43.508;1.504;2023-12-29T08:38:11;37.53;;;26.67;;
34765;SDS011;20984;43.508;1.504;2023-12-29T08:40:37;38.72;;;27.45;;
34765;SDS011;20984;43.508;1.504;2023-12-29T08:43:03;33.50;;;25.65;;
34765;SDS011;20984;43.508;1.504;2023-12-29T08:45:29;51.92;;;36.10;;
34765;SDS011;20984;43.508;1.504;2023-12-29T08:47:55;50.55;;;36.78;;
34765;SDS011;20984;43.508;1.504;2023-12-29T08:50:20;40.63;;;28.15;;
34765;SDS011;20984;43.508;1.504;2023-12-29T08:52:46;38.72;;;30.83;;
34765;SDS011;20984;43.508;1.504;2023-12-29T08:55:12;39.22;;;31.17;;
34765;SDS011;20984;43.508;1.504;2023-12-29T08:57:38;44.08;;;32.63;;
34765;SDS011;20984;43.508;1.504;2023-12-29T09:00:04;43.45;;;30.27;;
34765;SDS011;20984;43.508;1.504;2023-12-29T09:02:30;39.65;;;28.38;;
34765;SDS011;20984;43.508;1.504;2023-12-29T09:04:55;38.85;;;27.33;;
34765;SDS011;20984;43.508;1.504;2023-12-29T09:07:21;43.80;;;29.15;;
34765;SDS011;20984;43.508;1.504;2023-12-29T09:09:47;34.30;;;26.30;;
34765;SDS011;20984;43.508;1.504;2023-12-29T09:12:13;38.08;;;27.73;;
34765;SDS011;20984;43.508;1.504;2023-12-29T09:14:38;33.35;;;26.63;;
34765;SDS011;20984;43.508;1.504;2023-12-29T09:17:04;41.10;;;27.13;;
34765;SDS011;20984;43.508;1.504;2023-12-29T09:19:30;33.65;;;26.75;;
34765;SDS011;20984;43.508;1.504;2023-12-29T09:21:55;30.17;;;24.95;;
34765;SDS011;20984;43.508;1.504;2023-12-29T09:24:21;34.95;;;26.73;;
34765;SDS011;20984;43.508;1.504;2023-12-29T09:26:47;34.28;;;26.50;;
34765;SDS011;20984;43.508;1.504;2023-12-29T09:29:13;27.77;;;23.27;;
34765;SDS011;20984;43.508;1.504;2023-12-29T09:31:38;32.78;;;24.17;;
34765;SDS011;20984;43.508;1.504;2023-12-29T09:34:04;26.70;;;23.38;;
34765;SDS011;20984;43.508;1.504;2023-12-29T09:36:29;35.20;;;23.60;;
34765;SDS011;20984;43.508;1.504;2023-12-29T09:38:55;29.70;;;21.00;;
34765;SDS011;20984;43.508;1.504;2023-12-29T09:41:22;30.00;;;20.70;;
34765;SDS011;20984;43.508;1.504;2023-12-29T09:43:50;31.73;;;21.30;;
34765;SDS011;20984;43.508;1.504;2023-12-29T09:46:16;24.63;;;19.38;;
34765;SDS011;20984;43.508;1.504;2023-12-29T09:48:45;24.25;;;20.23;;
34765;SDS011;20984;43.508;1.504;2023-12-29T09:51:12;26.23;;;19.38;;
34765;SDS011;20984;43.508;1.504;2023-12-29T09:53:41;21.73;;;17.92;;
34765;SDS011;20984;43.508;1.504;2023-12-29T09:56:08;23.92;;;17.35;;
34765;SDS011;20984;43.508;1.504;2023-12-29T09:58:34;18.55;;;16.42;;
34765;SDS011;20984;43.508;1.504;2023-12-29T10:01:03;20.67;;;17.80;;
34765;SDS011;20984;43.508;1.504;2023-12-29T10:03:32;20.60;;;17.35;;
34765;SDS011;20984;43.508;1.504;2023-12-29T10:05:59;31.70;;;17.58;;
34765;SDS011;20984;43.508;1.504;2023-12-29T10:08:26;19.60;;;15.68;;
34765;SDS011;20984;43.508;1.504;2023-12-29T10:10:55;22.38;;;16.25;;
34765;SDS011;20984;43.508;1.504;2023-12-29T10:13:25;20.70;;;15.57;;
34765;SDS011;20984;43.508;1.504;2023-12-29T10:15:59;21.33;;;16.75;;
34765;SDS011;20984;43.508;1.504;2023-12-29T10:24:20;29.92;;;18.45;;
34765;SDS011;20984;43.508;1.504;2023-12-29T10:26:47;29.25;;;18.55;;
34765;SDS011;20984;43.508;1.504;2023-12-29T10:29:14;24.00;;;17.10;;
34765;SDS011;20984;43.508;1.504;2023-12-29T10:31:40;24.30;;;17.60;;
34765;SDS011;20984;43.508;1.504;2023-12-29T10:34:21;27.02;;;16.50;;
34765;SDS011;20984;43.508;1.504;2023-12-29T10:36:57;25.83;;;18.05;;
34765;SDS011;20984;43.508;1.504;2023-12-29T10:39:24;22.47;;;17.87;;
34765;SDS011;20984;43.508;1.504;2023-12-29T10:42:02;18.40;;;16.25;;
34765;SDS011;20984;43.508;1.504;2023-12-29T10:44:30;24.90;;;15.82;;
34765;SDS011;20984;43.508;1.504;2023-12-29T10:46:56;20.23;;;14.60;;
34765;SDS011;20984;43.508;1.504;2023-12-29T10:49:21;15.82;;;13.85;;
34765;SDS011;20984;43.508;1.504;2023-12-29T10:51:47;20.20;;;15.70;;
34765;SDS011;20984;43.508;1.504;2023-12-29T10:54:19;20.60;;;14.77;;
34765;SDS011;20984;43.508;1.504;2023-12-29T10:57:12;18.30;;;13.98;;
34765;SDS011;20984;43.508;1.504;2023-12-29T10:59:35;19.60;;;15.77;;
34765;SDS011;20984;43.508;1.504;2023-12-29T11:02:01;17.17;;;14.43;;
34765;SDS011;20984;43.508;1.504;2023-12-29T11:04:28;17.45;;;13.68;;
34765;SDS011;20984;43.508;1.504;2023-12-29T11:06:54;17.35;;;14.18;;
34765;SDS011;20984;43.508;1.504;2023-12-29T11:09:29;19.92;;;14.68;;
34765;SDS011;20984;43.508;1.504;2023-12-29T11:11:59;16.63;;;13.93;;
34765;SDS011;20984;43.508;1.504;2023-12-29T11:14:26;17.23;;;15.38;;
34765;SDS011;20984;43.508;1.504;2023-12-29T11:16:55;17.65;;;13.15;;
34765;SDS011;20984;43.508;1.504;2023-12-29T11:19:21;18.88;;;14.73;;
34765;SDS011;20984;43.508;1.504;2023-12-29T11:21:51;18.77;;;14.20;;
34765;SDS011;20984;43.508;1.504;2023-12-29T11:24:19;22.98;;;14.77;;
34765;SDS011;20984;43.508;1.504;2023-12-29T11:26:45;17.48;;;13.25;;
34765;SDS011;20984;43.508;1.504;2023-12-29T11:29:11;22.35;;;16.10;;
34765;SDS011;20984;43.508;1.504;2023-12-29T11:31:38;26.90;;;16.27;;
34765;SDS011;20984;43.508;1.504;2023-12-29T11:34:26;21.08;;;16.40;;
34765;SDS011;20984;43.508;1.504;2023-12-29T11:36:53;17.65;;;15.45;;
34765;SDS011;20984;43.508;1.504;2023-12-29T11:39:27;50.33;;;31.35;;
34765;SDS011;20984;43.508;1.504;2023-12-29T11:42:07;103.07;;;52.47;;
34765;SDS011;20984;43.508;1.504;2023-12-29T11:44:47;27.15;;;17.90;;
34765;SDS011;20984;43.508;1.504;2023-12-29T11:47:35;28.67;;;18.40;;
34765;SDS011;20984;43.508;1.504;2023-12-29T11:50:02;19.17;;;15.10;;
34765;SDS011;20984;43.508;1.504;2023-12-29T11:52:35;20.33;;;14.27;;
34765;SDS011;20984;43.508;1.504;2023-12-29T11:55:11;160.88;;;76.80;;
34765;SDS011;20984;43.508;1.504;2023-12-29T11:57:39;49.60;;;29.95;;
34765;SDS011;20984;43.508;1.504;2023-12-29T12:00:07;58.83;;;38.35;;
34765;SDS011;20984;43.508;1.504;2023-12-29T12:02:33;18.75;;;12.45;;
34765;SDS011;20984;43.508;1.504;2023-12-29T12:05:00;15.75;;;13.82;;
34765;SDS011;20984;43.508;1.504;2023-12-29T12:09:52;13.50;;;11.25;;
34765;SDS011;20984;43.508;1.504;2023-12-29T12:12:58;17.13;;;10.40;;
34765;SDS011;20984;43.508;1.504;2023-12-29T12:20:22;12.00;;;10.27;;
34765;SDS011;20984;43.508;1.504;2023-12-29T12:23:33;13.93;;;10.30;;
34765;SDS011;20984;43.508;1.504;2023-12-29T12:25:41;13.45;;;10.30;;
34765;SDS011;20984;43.508;1.504;2023-12-29T12:28:08;11.68;;;9.60;;
34765;SDS011;20984;43.508;1.504;2023-12-29T12:30:34;13.18;;;9.43;;
34765;SDS011;20984;43.508;1.504;2023-12-29T12:33:01;16.20;;;10.43;;
34765;SDS011;20984;43.508;1.504;2023-12-29T12:35:28;10.95;;;9.68;;
34765;SDS011;20984;43.508;1.504;2023-12-29T12:40:55;11.02;;;9.27;;
34765;SDS011;20984;43.508;1.504;2023-12-29T12:43:21;10.30;;;9.18;;
34765;SDS011;20984;43.508;1.504;2023-12-29T12:45:53;11.13;;;9.23;;
34765;SDS011;20984;43.508;1.504;2023-12-29T12:48:27;11.90;;;9.05;;
34765;SDS011;20984;43.508;1.504;2023-12-29T12:51:06;10.77;;;8.90;;
34765;SDS011;20984;43.508;1.504;2023-12-29T12:53:32;12.75;;;9.07;;
34765;SDS011;20984;43.508;1.504;2023-12-29T12:55:58;11.57;;;10.27;;
34765;SDS011;20984;43.508;1.504;2023-12-29T12:58:24;9.80;;;8.88;;
34765;SDS011;20984;43.508;1.504;2023-12-29T13:00:51;11.98;;;9.10;;
34765;SDS011;20984;43.508;1.504;2023-12-29T13:03:17;10.70;;;9.23;;
34765;SDS011;20984;43.508;1.504;2023-12-29T13:05:43;9.65;;;8.43;;
34765;SDS011;20984;43.508;1.504;2023-12-29T13:08:09;13.35;;;10.75;;
34765;SDS011;20984;43.508;1.504;2023-12-29T13:10:40;17.90;;;12.82;;
34765;SDS011;20984;43.508;1.504;2023-12-29T13:15:33;28.45;;;14.77;;
34765;SDS011;20984;43.508;1.504;2023-12-29T13:17:59;85.95;;;42.85;;
34765;SDS011;20984;43.508;1.504;2023-12-29T13:20:24;85.10;;;48.83;;
34765;SDS011;20984;43.508;1.504;2023-12-29T13:22:50;22.02;;;17.55;;
34765;SDS011;20984;43.508;1.504;2023-12-29T13:25:25;14.25;;;10.95;;
34765;SDS011;20984;43.508;1.504;2023-12-29T13:27:53;10.68;;;9.45;;
34765;SDS011;20984;43.508;1.504;2023-12-29T13:30:19;9.75;;;8.75;;
34765;SDS011;20984;43.508;1.504;2023-12-29T13:32:47;12.43;;;8.57;;
34765;SDS011;20984;43.508;1.504;2023-12-29T13:37:54;12.50;;;8.05;;
34765;SDS011;20984;43.508;1.504;2023-12-29T13:42:59;9.55;;;8.20;;
34765;SDS011;20984;43.508;1.504;2023-12-29T13:45:29;10.93;;;8.55;;
34765;SDS011;20984;43.508;1.504;2023-12-29T13:47:56;12.88;;;8.63;;
34765;SDS011;20984;43.508;1.504;2023-12-29T13:50:23;11.15;;;8.82;;
34765;SDS011;20984;43.508;1.504;2023-12-29T13:52:49;13.07;;;8.38;;
34765;SDS011;20984;43.508;1.504;2023-12-29T13:55:22;9.23;;;7.15;;
34765;SDS011;20984;43.508;1.504;2023-12-29T13:57:48;11.02;;;8.32;;
34765;SDS011;20984;43.508;1.504;2023-12-29T14:00:21;10.43;;;7.88;;
34765;SDS011;20984;43.508;1.504;2023-12-29T14:02:49;9.23;;;7.40;;
34765;SDS011;20984;43.508;1.504;2023-12-29T14:05:34;10.23;;;7.90;;
34765;SDS011;20984;43.508;1.504;2023-12-29T14:10:31;10.80;;;7.25;;
34765;SDS011;20984;43.508;1.504;2023-12-29T14:15:35;8.95;;;8.02;;
34765;SDS011;20984;43.508;1.504;2023-12-29T14:18:02;8.63;;;7.30;;
34765;SDS011;20984;43.508;1.504;2023-12-29T14:20:42;9.38;;;7.32;;
34765;SDS011;20984;43.508;1.504;2023-12-29T14:23:07;9.82;;;7.05;;
34765;SDS011;20984;43.508;1.504;2023-12-29T14:25:34;11.00;;;8.35;;
34765;SDS011;20984;43.508;1.504;2023-12-29T14:28:04;8.63;;;7.72;;
34765;SDS011;20984;43.508;1.504;2023-12-29T14:30:40;13.80;;;9.07;;
34765;SDS011;20984;43.508;1.504;2023-12-29T14:33:05;11.18;;;8.57;;
34765;SDS011;20984;43.508;1.504;2023-12-29T14:35:32;13.43;;;8.98;;
34765;SDS011;20984;43.508;1.504;2023-12-29T14:37:58;13.30;;;10.15;;
34765;SDS011;20984;43.508;1.504;2023-12-29T14:40:24;14.40;;;9.63;;
34765;SDS011;20984;43.508;1.504;2023-12-29T14:42:49;10.63;;;8.52;;
34765;SDS011;20984;43.508;1.504;2023-12-29T14:45:15;13.95;;;9.32;;
34765;SDS011;20984;43.508;1.504;2023-12-29T14:47:41;10.38;;;8.63;;
34765;SDS011;20984;43.508;1.504;2023-12-29T14:50:06;12.02;;;8.35;;
34765;SDS011;20984;43.508;1.504;2023-12-29T14:52:32;13.13;;;9.13;;
34765;SDS011;20984;43.508;1.504;2023-12-29T14:54:58;10.55;;;8.80;;
34765;SDS011;20984;43.508;1.504;2023-12-29T14:57:24;8.82;;;7.93;;